Time;durP1;ratioP1;P1;durP2;ratioP2;P2;SDS_P1;SDS_P2;PMS_P1;PMS_P2;Temp;Humidity;BMP_temperature;BMP_pressure;BME280_temperature;BME280_humidity;BME280_pressure;Samples;Min_cycle;Max_cycle;Signal;HPM_P1;HPM_P2
2021/06/14 00:02:24;;;;;;;5.47;3.97;;;14.60;1.00;;;;;;6136800;23;20471;-64
2021/06/14 00:04:49;;;;;;;8.10;4.47;;;14.60;1.00;;;;;;6127302;23;20574;-63
2021/06/14 00:07:16;;;;;;;5.03;3.93;;;14.60;1.00;;;;;;6136649;23;20234;-63
2021/06/14 00:09:43;;;;;;;6.47;4.45;;;14.60;1.00;;;;;;6136457;23;20435;-63
2021/06/14 00:12:10;;;;;;;5.72;4.32;;;14.60;1.00;;;;;;6127275;23;20190;-63
2021/06/14 00:14:36;;;;;;;4.88;3.70;;;14.50;1.00;;;;;;6126597;23;20253;-63
2021/06/14 00:17:02;;;;;;;5.57;4.17;;;14.60;1.00;;;;;;6136643;23;20178;-63
2021/06/14 00:19:28;;;;;;;4.93;3.92;;;14.50;1.00;;;;;;6136460;23;20206;-63
2021/06/14 00:21:54;;;;;;;6.93;4.40;;;14.50;1.00;;;;;;6136575;23;20446;-64
2021/06/14 00:24:19;;;;;;;5.55;3.72;;;14.50;1.00;;;;;;6136796;23;20184;-63
2021/06/14 00:26:45;;;;;;;5.90;4.80;;;14.20;1.00;;;;;;6136584;23;20319;-63
2021/06/14 00:29:10;;;;;;;5.73;4.10;;;14.20;1.00;;;;;;6136409;23;20163;-63
2021/06/14 00:31:36;;;;;;;9.30;4.47;;;14.30;1.00;;;;;;6136664;23;20163;-63
2021/06/14 00:34:02;;;;;;;6.70;4.80;;;14.10;1.00;;;;;;6136769;23;20502;-63
2021/06/14 00:36:27;;;;;;;4.87;3.50;;;13.90;1.00;;;;;;6127135;23;20163;-63
2021/06/14 00:38:53;;;;;;;6.60;5.00;;;14.00;1.00;;;;;;6136209;23;20278;-63
2021/06/14 00:41:19;;;;;;;4.87;3.80;;;14.00;1.00;;;;;;6136846;23;20247;-63
2021/06/14 00:43:44;;;;;;;3.93;3.50;;;13.70;1.00;;;;;;6127020;23;20562;-63
2021/06/14 00:46:10;;;;;;;7.50;3.70;;;13.90;1.00;;;;;;6127133;23;20441;-63
2021/06/14 00:48:36;;;;;;;7.00;4.47;;;13.90;1.00;;;;;;6138217;23;20158;-63
2021/06/14 00:51:05;;;;;;;6.88;4.38;;;13.90;1.00;;;;;;6129096;23;20163;-63
2021/06/14 00:53:32;;;;;;;5.18;3.53;;;14.00;1.00;;;;;;6138606;23;20154;-63
2021/06/14 00:56:00;;;;;;;4.53;3.40;;;14.00;1.00;;;;;;6138920;23;20155;-63
2021/06/14 00:58:26;;;;;;;4.95;3.85;;;14.10;1.00;;;;;;6137972;23;20190;-63
2021/06/14 01:00:52;;;;;;;4.72;3.35;;;14.10;1.00;;;;;;6138455;23;20214;-63
2021/06/14 01:03:18;;;;;;;6.68;4.18;;;14.20;1.00;;;;;;6138501;23;20162;-63
2021/06/14 01:05:47;;;;;;;5.70;3.93;;;14.30;1.00;;;;;;6138457;23;20219;-63
2021/06/14 01:08:13;;;;;;;6.35;3.38;;;14.40;99.90;;;;;;6138143;23;20214;-63
2021/06/14 01:10:40;;;;;;;5.43;3.17;;;14.30;99.90;;;;;;6138520;23;20237;-63
2021/06/14 01:13:25;;;;;;;4.25;3.53;;;14.30;99.90;;;;;;6151828;23;20210;-63
2021/06/14 01:16:23;;;;;;;4.63;3.45;;;14.30;99.90;;;;;;6138293;23;20174;-63
2021/06/14 01:19:20;;;;;;;5.35;3.53;;;14.40;99.90;;;;;;6138041;23;20198;-63
2021/06/14 01:22:00;;;;;;;6.00;4.07;;;14.50;99.90;;;;;;6086221;23;20163;-63
2021/06/14 01:24:37;;;;;;;5.05;3.25;;;14.40;99.90;;;;;;6138282;23;20205;-63
2021/06/14 01:27:11;;;;;;;3.70;3.03;;;14.30;99.90;;;;;;6138133;23;20201;-63
2021/06/14 01:29:38;;;;;;;4.00;3.58;;;14.30;99.90;;;;;;6127038;23;20216;-63
2021/06/14 01:32:07;;;;;;;7.05;3.70;;;14.40;99.90;;;;;;6138150;23;20352;-63
2021/06/14 01:34:36;;;;;;;4.78;3.85;;;14.40;99.90;;;;;;6138115;23;20162;-63
2021/06/14 01:37:02;;;;;;;3.83;3.53;;;14.30;99.90;;;;;;6137980;23;20159;-63
2021/06/14 01:39:31;;;;;;;5.00;3.50;;;14.20;99.90;;;;;;6128358;23;20506;-63
2021/06/14 01:41:58;;;;;;;3.95;3.58;;;14.20;99.90;;;;;;6151602;23;20202;-63
2021/06/14 01:44:25;;;;;;;6.28;4.00;;;14.20;99.90;;;;;;6138087;23;20159;-63
2021/06/14 01:46:53;;;;;;;4.10;3.15;;;14.10;1.00;;;;;;6137887;23;20178;-63
2021/06/14 01:49:20;;;;;;;3.38;2.97;;;14.10;1.00;;;;;;6128127;23;20257;-63
2021/06/14 01:51:46;;;;;;;5.22;3.53;;;14.10;1.00;;;;;;6138346;23;20185;-63
2021/06/14 01:54:12;;;;;;;4.37;3.70;;;14.10;1.00;;;;;;6137980;23;20577;-63
2021/06/14 01:56:40;;;;;;;3.42;3.13;;;14.10;1.00;;;;;;6128276;23;20426;-63
2021/06/14 01:59:08;;;;;;;5.20;3.65;;;14.00;1.00;;;;;;6137517;23;20178;-62
2021/06/14 02:01:37;;;;;;;4.97;4.05;;;13.80;1.00;;;;;;6137936;23;20155;-63
2021/06/14 02:04:04;;;;;;;7.20;3.50;;;13.70;1.00;;;;;;6137990;23;20163;-63
2021/06/14 02:06:35;;;;;;;8.40;4.30;;;13.60;1.00;;;;;;6137716;23;20161;-62
2021/06/14 02:09:07;;;;;;;6.60;3.80;;;13.40;1.00;;;;;;6137679;23;20147;-63
2021/06/14 02:11:33;;;;;;;8.25;4.07;;;13.40;1.00;;;;;;6137865;23;20500;-63
2021/06/14 02:14:00;;;;;;;5.43;3.40;;;13.50;1.00;;;;;;6137839;23;20238;-63
2021/06/14 02:16:28;;;;;;;3.95;3.30;;;13.60;1.00;;;;;;6137660;23;20170;-63
2021/06/14 02:18:54;;;;;;;6.32;3.90;;;13.70;1.00;;;;;;6137424;23;20594;-63
2021/06/14 02:21:20;;;;;;;6.65;3.63;;;13.60;1.00;;;;;;6137750;23;20151;-63
2021/06/14 02:23:46;;;;;;;6.17;4.00;;;13.50;1.00;;;;;;6137684;23;20178;-64
2021/06/14 02:26:11;;;;;;;5.03;3.60;;;13.50;1.00;;;;;;6137565;23;20210;-64
2021/06/14 02:28:37;;;;;;;4.80;3.93;;;13.60;1.00;;;;;;6137433;23;20387;-64
2021/06/14 02:31:04;;;;;;;6.50;3.80;;;13.70;1.00;;;;;;6137627;23;20609;-64
2021/06/14 02:33:30;;;;;;;5.38;3.95;;;13.60;1.00;;;;;;6137624;23;20162;-64
2021/06/14 02:35:56;;;;;;;5.10;3.25;;;13.70;1.00;;;;;;6128198;23;20225;-64
2021/06/14 02:38:23;;;;;;;4.43;3.80;;;13.70;1.00;;;;;;6137166;23;20183;-64
2021/06/14 02:40:49;;;;;;;3.92;3.30;;;13.60;1.00;;;;;;6137499;23;20473;-64
2021/06/14 02:43:15;;;;;;;4.00;3.33;;;13.50;1.00;;;;;;6137599;23;20246;-64
2021/06/14 02:45:43;;;;;;;3.50;3.20;;;13.60;1.00;;;;;;6137591;23;20387;-64
2021/06/14 02:48:10;;;;;;;6.55;3.95;;;13.60;1.00;;;;;;6137220;23;20470;-64
2021/06/14 02:50:37;;;;;;;5.78;3.40;;;13.70;1.00;;;;;;6127926;23;20163;-64
2021/06/14 02:53:07;;;;;;;9.90;3.70;;;13.70;1.00;;;;;;6137358;23;20517;-64
2021/06/14 02:55:39;;;;;;;6.78;4.20;;;13.70;1.00;;;;;;6137445;23;20147;-64
2021/06/14 02:58:06;;;;;;;4.20;3.20;;;13.60;1.00;;;;;;6137279;23;20163;-64
2021/06/14 03:00:32;;;;;;;5.57;4.10;;;13.60;1.00;;;;;;6127739;23;20182;-64
2021/06/14 03:03:04;;;;;;;4.43;3.63;;;13.60;1.00;;;;;;6127820;23;20217;-64
2021/06/14 03:05:31;;;;;;;4.55;3.55;;;13.70;1.00;;;;;;6137273;23;20455;-64
2021/06/14 03:07:58;;;;;;;5.07;3.97;;;13.80;1.00;;;;;;6137266;23;20159;-63
2021/06/14 03:10:26;;;;;;;5.55;3.60;;;13.50;1.00;;;;;;6136685;23;20206;-64
2021/06/14 03:12:53;;;;;;;5.00;3.83;;;13.40;1.00;;;;;;6136075;23;20242;-64
2021/06/14 03:15:19;;;;;;;6.28;3.65;;;13.60;1.00;;;;;;6137153;23;20182;-64
2021/06/14 03:17:44;;;;;;;3.53;3.23;;;13.70;1.00;;;;;;6127095;23;20167;-64
2021/06/14 03:20:12;;;;;;;4.67;3.87;;;13.80;1.00;;;;;;6137414;23;20183;-63
2021/06/14 03:22:39;;;;;;;4.53;3.50;;;13.90;1.00;;;;;;6127727;23;20185;-63
2021/06/14 03:25:05;;;;;;;8.07;3.53;;;13.90;99.90;;;;;;6137098;23;20147;-63
2021/06/14 03:27:31;;;;;;;7.20;3.40;;;14.00;99.90;;;;;;6136955;23;20169;-63
2021/06/14 03:29:58;;;;;;;5.43;3.60;;;14.00;99.90;;;;;;6136969;23;20275;-63
2021/06/14 03:32:23;;;;;;;6.32;3.60;;;14.00;99.90;;;;;;6137056;23;20861;-63
2021/06/14 03:34:52;;;;;;;4.40;3.80;;;14.10;99.90;;;;;;6137194;23;20162;-63
2021/06/14 03:37:18;;;;;;;4.65;3.35;;;14.00;99.90;;;;;;6127425;23;20167;-63
2021/06/14 03:39:44;;;;;;;5.20;4.17;;;14.00;99.90;;;;;;6136894;23;20213;-63
2021/06/14 03:42:09;;;;;;;6.90;3.50;;;14.20;99.90;;;;;;6137305;23;20181;-63
2021/06/14 03:44:36;;;;;;;5.40;3.23;;;14.20;99.90;;;;;;6136869;23;20166;-64
2021/06/14 03:47:01;;;;;;;4.85;3.42;;;14.30;99.90;;;;;;6136831;23;20155;-63
2021/06/14 03:49:27;;;;;;;4.00;3.60;;;14.50;14.30;;;;;;6136891;23;20159;-62
2021/06/14 03:51:52;;;;;;;4.10;3.50;;;14.50;1.00;;;;;;6136974;23;20224;-62
2021/06/14 03:54:18;;;;;;;4.03;3.63;;;14.50;1.00;;;;;;6137018;23;20169;-62
2021/06/14 03:56:43;;;;;;;4.30;3.60;;;14.70;1.00;;;;;;6136961;23;20159;-64
2021/06/14 03:59:09;;;;;;;4.80;3.20;;;14.80;1.00;;;;;;6135527;23;20645;-64
2021/06/14 04:01:34;;;;;;;5.73;2.87;;;15.60;99.90;;;;;;6135516;23;20151;-64
2021/06/14 04:06:29;;;;;;;5.00;3.30;;;20.20;99.90;;;;;;6137213;23;20230;-64
2021/06/14 04:08:55;;;;;;;3.70;2.90;;;22.40;1.00;;;;;;6136683;23;20166;-65
2021/06/14 04:11:20;;;;;;;5.37;3.10;;;23.90;1.00;;;;;;6127478;23;20777;-64
2021/06/14 04:13:49;;;;;;;6.57;2.70;;;25.00;1.00;;;;;;6136885;23;20422;-64
2021/06/14 04:16:16;;;;;;;4.60;2.50;;;25.60;1.00;;;;;;6125953;23;20186;-64
2021/06/14 04:18:41;;;;;;;3.97;2.50;;;25.90;1.00;;;;;;6135540;23;20873;-65
2021/06/14 04:21:07;;;;;;;4.30;2.70;;;26.30;1.00;;;;;;6135595;23;20383;-64
2021/06/14 04:23:32;;;;;;;4.23;3.83;;;27.20;1.00;;;;;;6135667;23;20159;-64
2021/06/14 04:25:58;;;;;;;3.93;2.97;;;27.90;1.00;;;;;;6135831;23;20158;-65
2021/06/14 04:28:24;;;;;;;4.63;2.50;;;28.30;1.00;;;;;;6125958;23;20167;-65
2021/06/14 04:30:49;;;;;;;3.90;3.00;;;28.60;1.00;;;;;;6135787;23;20528;-65
2021/06/14 04:33:15;;;;;;;5.60;2.50;;;28.50;1.00;;;;;;6126191;23;20233;-65
2021/06/14 04:35:40;;;;;;;6.47;3.37;;;27.70;1.00;;;;;;6135601;23;20172;-65
2021/06/14 04:38:06;;;;;;;4.87;2.93;;;26.30;1.00;;;;;;6135258;23;20533;-64
2021/06/14 04:40:31;;;;;;;3.63;2.53;;;26.80;1.00;;;;;;6135691;23;20466;-65
2021/06/14 04:42:57;;;;;;;5.03;3.47;;;26.00;1.00;;;;;;6149078;23;20487;-65
2021/06/14 04:45:23;;;;;;;4.60;3.43;;;25.20;1.00;;;;;;6125981;23;20159;-65
2021/06/14 04:47:49;;;;;;;4.33;2.60;;;25.70;1.00;;;;;;6125906;23;20169;-68
2021/06/14 04:50:16;;;;;;;9.27;2.80;;;26.60;1.00;;;;;;6135275;23;20462;-65
2021/06/14 04:52:41;;;;;;;5.37;3.10;;;27.40;1.00;;;;;;6135473;23;20414;-64
2021/06/14 04:55:08;;;;;;;5.43;2.30;;;28.00;1.00;;;;;;6135528;23;20703;-65
2021/06/14 04:57:33;;;;;;;4.00;2.27;;;28.20;1.00;;;;;;6125337;23;20159;-65
2021/06/14 04:59:59;;;;;;;3.80;2.53;;;26.80;1.00;;;;;;6135480;23;20727;-65
2021/06/14 05:02:24;;;;;;;5.60;4.03;;;27.80;1.00;;;;;;6134893;23;20159;-64
2021/06/14 05:04:50;;;;;;;6.23;2.87;;;28.30;1.00;;;;;;6135199;23;20161;-65
2021/06/14 05:07:15;;;;;;;4.53;3.07;;;28.00;1.00;;;;;;6135123;23;20159;-65
2021/06/14 05:09:41;;;;;;;3.43;3.13;;;28.20;1.00;;;;;;6135185;23;20183;-64
2021/06/14 05:12:07;;;;;;;4.90;2.80;;;28.00;1.00;;;;;;6135224;23;20159;-64
2021/06/14 05:14:33;;;;;;;4.17;3.23;;;28.50;1.00;;;;;;6125413;23;187594;-64
2021/06/14 05:16:58;;;;;;;7.53;3.00;;;28.00;1.00;;;;;;6136459;23;20508;-65
2021/06/14 05:19:24;;;;;;;7.93;2.73;;;28.00;1.00;;;;;;6136414;23;20210;-65
2021/06/14 05:21:50;;;;;;;4.67;2.87;;;28.40;1.00;;;;;;6136819;23;20158;-64
2021/06/14 05:24:15;;;;;;;4.73;3.10;;;28.40;1.00;;;;;;6136768;23;20151;-65
2021/06/14 05:26:41;;;;;;;7.50;4.10;;;28.20;1.00;;;;;;6136443;23;20573;-65
2021/06/14 05:29:06;;;;;;;4.90;3.53;;;27.50;1.00;;;;;;6136521;23;20290;-65
2021/06/14 05:31:32;;;;;;;4.03;2.73;;;28.00;1.00;;;;;;6126839;23;20250;-65
2021/06/14 05:33:58;;;;;;;8.30;2.70;;;27.40;1.00;;;;;;6128192;23;20166;-65
2021/06/14 05:36:23;;;;;;;5.77;2.77;;;26.50;1.00;;;;;;6138152;23;20178;-65
2021/06/14 05:38:49;;;;;;;2.83;2.40;;;26.20;1.00;;;;;;6128480;23;20186;-66
2021/06/14 05:41:14;;;;;;;5.57;3.40;;;26.50;1.00;;;;;;6138172;23;20180;-65
2021/06/14 05:43:40;;;;;;;4.03;2.60;;;25.90;1.00;;;;;;6138066;23;20245;-64
2021/06/14 05:46:05;;;;;;;5.23;2.90;;;26.50;1.00;;;;;;6127156;23;20166;-64
2021/06/14 05:48:31;;;;;;;2.60;1.97;;;27.40;1.00;;;;;;6137755;23;20269;-64
2021/06/14 05:50:56;;;;;;;4.57;3.03;;;28.40;1.00;;;;;;6137978;23;20159;-64
2021/06/14 05:53:23;;;;;;;4.93;2.47;;;28.90;1.00;;;;;;6138020;23;20155;-65
2021/06/14 05:55:49;;;;;;;3.90;2.33;;;30.30;1.00;;;;;;6128217;23;20585;-64
2021/06/14 05:58:16;;;;;;;3.60;2.00;;;30.90;1.00;;;;;;6137500;23;20434;-64
2021/06/14 06:00:41;;;;;;;3.77;2.37;;;32.00;1.00;;;;;;6137507;23;20155;-64
2021/06/14 06:03:07;;;;;;;6.00;2.70;;;32.80;1.00;;;;;;6128414;23;20413;-64
2021/06/14 06:05:32;;;;;;;4.13;2.40;;;32.00;1.00;;;;;;6137928;23;20460;-63
2021/06/14 06:07:58;;;;;;;3.73;2.40;;;32.80;1.00;;;;;;6137655;23;20160;-64
2021/06/14 06:10:23;;;;;;;7.33;2.47;;;32.80;1.00;;;;;;6128147;23;20167;-64
2021/06/14 06:12:49;;;;;;;4.63;2.60;;;31.50;1.00;;;;;;6137780;23;20566;-65
2021/06/14 06:15:17;;;;;;;3.50;2.27;;;31.30;1.00;;;;;;6137686;23;20233;-64
2021/06/14 06:17:44;;;;;;;7.60;2.90;;;32.30;1.00;;;;;;6127782;23;20182;-64
2021/06/14 06:20:11;;;;;;;4.97;3.63;;;32.60;1.00;;;;;;6136075;23;20462;-66
2021/06/14 06:22:37;;;;;;;7.30;3.40;;;32.80;1.00;;;;;;6137183;23;20399;-66
2021/06/14 06:25:08;;;;;;;4.10;3.47;;;33.60;1.00;;;;;;6137702;23;20387;-67
2021/06/14 06:27:34;;;;;;;4.00;3.30;;;33.90;1.00;;;;;;6137235;23;20378;-65
2021/06/14 06:30:00;;;;;;;4.77;3.03;;;34.00;1.00;;;;;;6137270;23;20399;-64
2021/06/14 06:32:25;;;;;;;11.27;4.40;;;31.90;1.00;;;;;;6137662;23;20467;-64
2021/06/14 06:34:51;;;;;;;5.53;3.20;;;32.00;1.00;;;;;;6137296;23;20155;-68
2021/06/14 06:37:17;;;;;;;8.20;3.47;;;31.90;1.00;;;;;;6137404;23;20579;-70
2021/06/14 06:39:42;;;;;;;4.13;3.07;;;32.90;1.00;;;;;;6137395;23;20179;-70
2021/06/14 06:42:08;;;;;;;5.97;4.03;;;33.50;1.00;;;;;;6137924;23;20454;-69
2021/06/14 06:44:35;;;;;;;5.93;3.67;;;33.30;1.00;;;;;;6137086;23;20193;-69
2021/06/14 06:47:01;;;;;;;5.00;3.40;;;29.80;1.00;;;;;;6137124;23;20178;-68
2021/06/14 06:49:27;;;;;;;6.20;3.50;;;28.30;1.00;;;;;;6137271;23;20394;-67
2021/06/14 06:51:52;;;;;;;5.40;3.20;;;30.00;1.00;;;;;;6137182;23;20394;-67
2021/06/14 06:54:18;;;;;;;5.53;3.40;;;30.40;1.00;;;;;;6137317;23;20164;-66
2021/06/14 06:56:49;;;;;;;4.43;3.30;;;31.50;1.00;;;;;;6137099;23;20577;-67
2021/06/14 06:59:15;;;;;;;5.80;3.63;;;31.40;1.00;;;;;;6137137;23;20170;-68
2021/06/14 07:01:42;;;;;;;6.93;3.90;;;30.40;1.00;;;;;;6137509;23;20401;-67
2021/06/14 07:04:07;;;;;;;4.47;3.20;;;29.60;1.00;;;;;;6127880;23;20375;-67
2021/06/14 07:06:34;;;;;;;7.37;3.90;;;30.60;1.00;;;;;;6137097;23;20401;-70
2021/06/14 07:09:00;;;;;;;4.93;4.40;;;31.30;1.00;;;;;;6137156;23;20165;-69
2021/06/14 07:11:27;;;;;;;5.93;3.30;;;32.00;1.00;;;;;;6135388;23;20497;-70
2021/06/14 07:13:54;;;;;;;4.93;3.47;;;31.20;1.00;;;;;;6136965;23;20201;-71
2021/06/14 07:16:20;;;;;;;6.83;3.40;;;29.10;1.00;;;;;;6137130;23;20865;-71
2021/06/14 07:18:46;;;;;;;7.90;3.97;;;29.60;1.00;;;;;;6136620;23;20430;-71
2021/06/14 07:21:12;;;;;;;6.83;3.97;;;30.00;1.00;;;;;;6150580;23;20550;-71
2021/06/14 07:23:38;;;;;;;5.30;3.23;;;30.30;1.00;;;;;;6126378;23;20454;-70
2021/06/14 07:26:04;;;;;;;8.17;4.70;;;30.80;1.00;;;;;;6137605;23;20477;-70
2021/06/14 07:28:29;;;;;;;8.93;4.37;;;30.80;1.00;;;;;;6150621;23;20405;-68
2021/06/14 07:30:55;;;;;;;6.27;3.80;;;30.20;1.00;;;;;;6137802;23;20395;-69
2021/06/14 07:33:21;;;;;;;6.90;4.53;;;30.50;1.00;;;;;;6137167;23;20209;-67
2021/06/14 07:35:46;;;;;;;6.10;3.70;;;29.30;1.00;;;;;;6151393;23;20158;-67
2021/06/14 07:38:12;;;;;;;6.00;3.20;;;28.90;1.00;;;;;;6137472;23;20256;-69
2021/06/14 07:40:38;;;;;;;8.20;4.53;;;27.70;1.00;;;;;;6128172;23;20161;-69
2021/06/14 07:43:05;;;;;;;6.37;3.50;;;26.70;1.00;;;;;;6137451;23;20418;-70
2021/06/14 07:45:31;;;;;;;6.33;4.20;;;25.90;1.00;;;;;;6127490;23;20402;-68
2021/06/14 07:47:57;;;;;;;8.60;3.73;;;24.90;1.00;;;;;;6137456;23;20461;-66
2021/06/14 07:50:22;;;;;;;8.10;3.27;;;24.20;1.00;;;;;;6137399;23;20386;-68
2021/06/14 07:52:48;;;;;;;9.37;4.73;;;23.90;1.00;;;;;;6137825;23;20155;-67
2021/06/14 07:55:14;;;;;;;7.37;3.90;;;24.10;1.00;;;;;;6137613;23;20551;-69
2021/06/14 07:57:41;;;;;;;5.40;3.20;;;24.30;1.00;;;;;;6137636;23;20408;-66
2021/06/14 08:00:12;;;;;;;4.43;3.63;;;24.30;1.00;;;;;;6150730;23;20438;-70
2021/06/14 08:02:41;;;;;;;7.77;3.90;;;24.10;1.00;;;;;;6137680;23;20485;-69
2021/06/14 08:05:11;;;;;;;7.03;4.17;;;24.00;1.00;;;;;;6138178;23;20789;-68
2021/06/14 08:07:37;;;;;;;8.50;4.40;;;24.00;1.00;;;;;;6137834;23;20383;-67
2021/06/14 08:10:06;;;;;;;5.87;4.83;;;23.70;1.00;;;;;;6135544;23;20395;-70
2021/06/14 08:12:34;;;;;;;5.60;3.47;;;23.80;1.00;;;;;;6127707;23;20706;-70
2021/06/14 08:15:00;;;;;;;6.20;4.10;;;23.60;1.00;;;;;;6126830;23;20421;-68
2021/06/14 08:17:28;;;;;;;5.50;4.00;;;23.80;1.00;;;;;;6136447;23;20406;-65
2021/06/14 08:19:59;;;;;;;6.10;4.07;;;23.80;1.00;;;;;;6136060;23;20437;-64
2021/06/14 08:25:10;;;;;;;5.97;4.33;;;23.80;1.00;;;;;;6126820;23;20434;-66
2021/06/14 08:27:41;;;;;;;6.67;3.53;;;24.00;1.00;;;;;;6136218;23;20909;-63
2021/06/14 08:30:10;;;;;;;6.03;4.00;;;24.20;1.00;;;;;;6136300;23;20398;-63
2021/06/14 08:32:36;;;;;;;7.00;3.67;;;24.10;1.00;;;;;;6126857;23;20707;-67
2021/06/14 08:35:07;;;;;;;5.53;3.80;;;24.30;1.00;;;;;;6136825;23;20401;-67
2021/06/14 08:37:34;;;;;;;6.97;3.70;;;24.40;1.00;;;;;;6136296;23;20378;-66
2021/06/14 08:39:59;;;;;;;9.00;4.33;;;24.10;1.00;;;;;;6135971;23;20510;-64
2021/06/14 08:42:25;;;;;;;3.90;3.20;;;24.30;1.00;;;;;;6136329;23;20731;-65
2021/06/14 08:44:51;;;;;;;5.67;4.67;;;24.00;1.00;;;;;;6136423;23;20206;-69
2021/06/14 08:47:17;;;;;;;9.10;4.10;;;24.00;1.00;;;;;;6150241;23;20197;-67
2021/06/14 08:49:44;;;;;;;7.53;4.63;;;24.30;1.00;;;;;;6136352;23;20169;-69
2021/06/14 08:52:10;;;;;;;6.90;4.27;;;24.30;1.00;;;;;;6136413;23;20445;-68
2021/06/14 08:54:40;;;;;;;6.27;3.83;;;24.40;1.00;;;;;;6136584;23;20757;-68
2021/06/14 08:57:07;;;;;;;4.20;3.70;;;24.60;1.00;;;;;;6150057;23;20399;-65
2021/06/14 08:59:32;;;;;;;11.33;7.30;;;24.80;1.00;;;;;;6136327;23;20438;-63
2021/06/14 09:01:59;;;;;;;8.10;4.33;;;24.90;1.00;;;;;;6136259;23;20386;-65
2021/06/14 09:04:25;;;;;;;5.20;3.80;;;24.80;1.00;;;;;;6136435;23;20278;-66
2021/06/14 09:06:50;;;;;;;5.23;4.00;;;24.90;1.00;;;;;;6136016;23;20449;-69
2021/06/14 09:09:16;;;;;;;4.33;3.60;;;24.50;1.00;;;;;;6137822;23;20166;-69
2021/06/14 09:11:51;;;;;;;6.60;4.50;;;24.30;1.00;;;;;;6151785;23;20173;-68
2021/06/14 09:14:20;;;;;;;5.40;4.00;;;24.70;1.00;;;;;;6139326;23;20584;-70
2021/06/14 09:16:46;;;;;;;6.07;3.87;;;25.00;1.00;;;;;;6152392;23;20461;-69
2021/06/14 09:19:23;;;;;;;7.60;3.80;;;25.40;1.00;;;;;;6151582;23;20434;-69
2021/06/14 09:21:54;;;;;;;6.07;3.73;;;25.60;1.00;;;;;;6137634;23;20498;-69
2021/06/14 09:24:20;;;;;;;5.63;3.43;;;25.90;1.00;;;;;;6138192;23;20514;-69
2021/06/14 09:26:46;;;;;;;6.83;4.30;;;25.70;1.00;;;;;;6151791;23;20524;-71
2021/06/14 09:29:23;;;;;;;5.40;3.93;;;25.90;1.00;;;;;;6138368;23;20393;-70
2021/06/14 09:31:51;;;;;;;6.00;3.40;;;25.90;1.00;;;;;;6138255;23;20147;-65
2021/06/14 09:34:18;;;;;;;6.43;3.87;;;25.90;1.00;;;;;;6137879;23;20395;-65
2021/06/14 09:36:56;;;;;;;4.70;4.13;;;25.70;1.00;;;;;;6138083;23;20394;-66
2021/06/14 09:39:22;;;;;;;4.60;2.90;;;25.60;1.00;;;;;;6128062;23;20418;-65
2021/06/14 09:41:51;;;;;;;5.37;4.00;;;25.50;1.00;;;;;;6136083;23;20390;-65
2021/06/14 09:44:28;;;;;;;6.87;3.77;;;25.60;1.00;;;;;;6137585;23;20888;-66
2021/06/14 09:47:05;;;;;;;7.43;3.33;;;25.50;1.00;;;;;;6150803;23;20417;-64
2021/06/14 09:49:32;;;;;;;5.63;3.70;;;25.60;1.00;;;;;;6138168;23;20417;-64
2021/06/14 09:51:58;;;;;;;6.00;4.07;;;25.50;1.00;;;;;;6138113;23;20394;-65
2021/06/14 09:54:32;;;;;;;5.70;4.10;;;25.80;1.00;;;;;;6138111;23;20848;-64
2021/06/14 09:57:00;;;;;;;4.73;3.23;;;25.70;1.00;;;;;;6137983;23;20403;-64
2021/06/14 09:59:29;;;;;;;6.30;3.93;;;25.70;1.00;;;;;;6128157;23;20847;-65
2021/06/14 10:02:17;;;;;;;5.03;3.97;;;25.30;1.00;;;;;;6138052;23;20387;-64
2021/06/14 10:04:49;;;;;;;5.60;3.83;;;25.30;1.00;;;;;;6138108;23;20375;-65
2021/06/14 10:07:16;;;;;;;5.50;3.67;;;25.20;1.00;;;;;;6137860;23;20387;-65
2021/06/14 10:09:44;;;;;;;8.30;3.50;;;25.40;1.00;;;;;;6127962;23;20395;-65
2021/06/14 10:12:25;;;;;;;7.90;3.37;;;25.60;1.00;;;;;;6126836;23;20398;-64
2021/06/14 10:14:56;;;;;;;4.30;3.20;;;25.40;1.00;;;;;;6138223;23;20417;-65
2021/06/14 10:17:42;;;;;;;7.90;3.80;;;25.30;1.00;;;;;;6127988;23;20849;-65
2021/06/14 10:20:09;;;;;;;6.03;4.00;;;25.60;1.00;;;;;;6139196;23;20418;-69
2021/06/14 10:22:36;;;;;;;5.87;3.13;;;25.80;1.00;;;;;;6138915;23;20390;-68
2021/06/14 10:25:03;;;;;;;4.63;3.53;;;26.00;1.00;;;;;;6130294;23;20391;-67
2021/06/14 10:27:29;;;;;;;4.07;2.80;;;25.70;1.00;;;;;;6139100;23;20379;-67
2021/06/14 10:29:54;;;;;;;5.50;3.57;;;25.60;1.00;;;;;;6129358;23;20538;-66
2021/06/14 10:32:20;;;;;;;6.80;3.70;;;25.90;1.00;;;;;;6138484;23;20404;-66
2021/06/14 10:34:49;;;;;;;4.37;3.97;;;26.40;1.00;;;;;;6139091;23;20174;-66
2021/06/14 10:37:15;;;;;;;5.10;2.83;;;26.10;1.00;;;;;;6139290;23;20238;-67
2021/06/14 10:39:46;;;;;;;5.53;3.40;;;25.80;1.00;;;;;;6138357;23;20783;-67
2021/06/14 10:42:13;;;;;;;5.87;3.63;;;25.60;1.00;;;;;;6152245;23;20414;-68
2021/06/14 10:44:40;;;;;;;5.00;3.77;;;26.00;1.00;;;;;;6138444;23;20686;-68
2021/06/14 10:47:08;;;;;;;5.93;3.50;;;26.20;1.00;;;;;;6138708;23;21004;-67
2021/06/14 10:49:34;;;;;;;4.90;3.37;;;26.50;1.00;;;;;;6128231;23;20469;-67
2021/06/14 10:52:02;;;;;;;5.90;3.50;;;26.80;1.00;;;;;;6138667;23;20473;-67
2021/06/14 10:54:43;;;;;;;5.83;3.30;;;26.80;1.00;;;;;;6138415;23;20825;-67
2021/06/14 10:57:11;;;;;;;5.63;3.87;;;26.80;1.00;;;;;;6128500;23;20408;-67
2021/06/14 10:59:38;;;;;;;3.80;3.23;;;26.80;1.00;;;;;;6136301;23;20927;-67
2021/06/14 11:02:09;;;;;;;4.50;3.20;;;26.40;1.00;;;;;;6138045;23;20367;-68
2021/06/14 11:04:35;;;;;;;3.90;2.63;;;26.30;1.00;;;;;;6137847;23;20379;-67
2021/06/14 11:07:01;;;;;;;6.27;3.30;;;26.60;1.00;;;;;;6137512;23;20386;-64
2021/06/14 11:09:47;;;;;;;4.93;2.70;;;26.60;1.00;;;;;;6137002;23;20597;-68
2021/06/14 11:12:29;;;;;;;4.20;3.13;;;26.70;1.00;;;;;;6127264;23;20850;-65
2021/06/14 11:14:55;;;;;;;5.50;2.80;;;26.60;1.00;;;;;;6137372;23;20924;-67
2021/06/14 11:17:25;;;;;;;4.00;3.43;;;26.60;1.00;;;;;;6137277;23;20390;-67
2021/06/14 11:20:01;;;;;;;3.27;2.80;;;26.80;1.00;;;;;;6150425;23;20434;-68
2021/06/14 11:22:48;;;;;;;6.03;3.20;;;26.90;1.00;;;;;;6125784;23;20437;-67
2021/06/14 11:25:20;;;;;;;4.53;3.03;;;26.70;1.00;;;;;;6137166;23;20657;-68
2021/06/14 11:27:46;;;;;;;3.43;2.70;;;26.80;1.00;;;;;;6149728;23;20395;-67
2021/06/14 11:30:15;;;;;;;3.97;2.60;;;27.10;1.00;;;;;;6136855;23;20908;-68
2021/06/14 11:32:41;;;;;;;3.50;3.20;;;27.30;1.00;;;;;;6136974;23;20805;-68
2021/06/14 11:35:08;;;;;;;5.73;3.73;;;27.10;1.00;;;;;;6136938;23;20750;-68
2021/06/14 11:37:38;;;;;;;5.03;2.87;;;27.10;1.00;;;;;;6136777;23;20391;-68
2021/06/14 11:40:06;;;;;;;5.97;3.40;;;27.40;1.00;;;;;;6126866;23;20433;-68
2021/06/14 11:42:45;;;;;;;4.87;2.93;;;27.50;1.00;;;;;;6127329;23;20729;-68
2021/06/14 11:45:32;;;;;;;6.07;4.00;;;27.60;1.00;;;;;;6127886;23;20826;-68
2021/06/14 11:48:00;;;;;;;5.50;3.93;;;27.70;1.00;;;;;;6126996;23;20474;-67
2021/06/14 11:50:28;;;;;;;4.97;2.60;;;27.60;1.00;;;;;;6136667;23;20382;-67
2021/06/14 11:53:06;;;;;;;4.40;3.80;;;27.50;1.00;;;;;;6136841;23;20414;-67
2021/06/14 11:55:41;;;;;;;5.93;3.30;;;27.50;1.00;;;;;;6127387;23;20406;-66
2021/06/14 11:58:09;;;;;;;5.20;2.90;;;27.60;1.00;;;;;;6136139;23;20692;-66
2021/06/14 12:00:39;;;;;;;3.00;2.67;;;27.70;1.00;;;;;;6136858;23;20398;-67
2021/06/14 12:03:22;;;;;;;4.23;2.60;;;27.60;1.00;;;;;;6126078;23;20394;-66
2021/06/14 12:05:50;;;;;;;3.77;3.27;;;27.70;1.00;;;;;;6101419;23;20394;-68
2021/06/14 12:08:21;;;;;;;4.40;3.20;;;27.70;1.00;;;;;;6136588;23;20433;-65
2021/06/14 12:10:55;;;;;;;4.13;3.70;;;27.50;1.00;;;;;;6136712;23;20421;-68
2021/06/14 12:13:25;;;;;;;4.63;3.47;;;27.20;1.00;;;;;;6150562;23;20387;-72
2021/06/14 12:15:53;;;;;;;5.10;3.37;;;26.80;1.00;;;;;;6136975;23;20861;-70
2021/06/14 12:18:19;;;;;;;4.20;3.20;;;26.80;1.00;;;;;;6136438;23;20426;-70
2021/06/14 12:21:09;;;;;;;4.90;2.93;;;26.70;1.00;;;;;;6136712;23;20753;-70
2021/06/14 12:23:37;;;;;;;3.87;3.20;;;27.30;1.00;;;;;;6119176;23;20842;-70
2021/06/14 12:26:12;;;;;;;3.90;3.30;;;27.50;1.00;;;;;;6126255;23;20846;-67
2021/06/14 12:28:39;;;;;;;3.90;3.43;;;27.50;1.00;;;;;;6136265;23;20466;-67
2021/06/14 12:31:09;;;;;;;4.50;2.87;;;27.60;1.00;;;;;;6136440;23;20467;-67
2021/06/14 12:33:36;;;;;;;5.80;3.00;;;27.50;1.00;;;;;;6136343;23;20845;-67
2021/06/14 12:36:03;;;;;;;3.63;3.23;;;27.50;1.00;;;;;;6126764;23;20398;-68
2021/06/14 12:38:30;;;;;;;5.50;3.60;;;27.70;1.00;;;;;;6135899;23;20422;-70
2021/06/14 12:40:57;;;;;;;5.67;2.90;;;28.00;1.00;;;;;;6136595;23;20462;-70
2021/06/14 12:43:22;;;;;;;4.43;3.00;;;27.40;1.00;;;;;;6151441;23;20709;-71
2021/06/14 12:45:49;;;;;;;4.40;3.20;;;27.30;1.00;;;;;;6138189;23;20391;-71
2021/06/14 12:48:18;;;;;;;5.43;3.07;;;27.40;1.00;;;;;;6138798;23;20173;-68
2021/06/14 12:50:49;;;;;;;5.60;3.90;;;27.10;1.00;;;;;;6138871;23;20457;-70
2021/06/14 12:53:19;;;;;;;3.17;2.70;;;27.20;1.00;;;;;;6138403;23;20374;-69
2021/06/14 12:55:47;;;;;;;8.20;4.27;;;27.30;1.00;;;;;;6128961;23;20405;-68
2021/06/14 12:58:15;;;;;;;4.57;2.80;;;27.20;1.00;;;;;;6138254;23;20429;-68
2021/06/14 13:00:43;;;;;;;4.00;2.73;;;26.90;1.00;;;;;;6138242;23;20854;-65
2021/06/14 13:03:09;;;;;;;5.90;2.90;;;27.00;1.00;;;;;;6137855;23;20395;-66
2021/06/14 13:05:39;;;;;;;4.40;2.97;;;27.10;1.00;;;;;;6128792;23;20378;-66